Time;durP1;ratioP1;P1;durP2;ratioP2;P2;SDS_P1;SDS_P2;PMS_P1;PMS_P2;Temp;Humidity;BMP_temperature;BMP_pressure;BME280_temperature;BME280_humidity;BME280_pressure;Samples;Min_cycle;Max_cycle;Signal;HPM_P1;HPM_P2
2022/07/01 00:00:00;;;;;;;15.48;4.20;;;16.00;99.90;;;;;;4991489;28;20639;-77
2022/07/01 00:02:26;;;;;;;11.30;3.67;;;15.90;99.90;;;;;;4990775;28;20053;-77
2022/07/01 00:04:51;;;;;;;11.52;3.88;;;15.80;99.90;;;;;;4991016;28;20046;-77
2022/07/01 00:07:18;;;;;;;9.95;3.58;;;15.90;99.90;;;;;;4992076;28;20423;-77
2022/07/01 00:09:44;;;;;;;12.50;3.55;;;15.80;99.90;;;;;;4989895;28;20451;-77
2022/07/01 00:12:10;;;;;;;10.55;3.35;;;15.80;99.90;;;;;;4987331;28;20046;-77
2022/07/01 00:14:35;;;;;;;4.57;2.95;;;15.80;99.90;;;;;;4992277;28;20073;-77
2022/07/01 00:17:02;;;;;;;8.30;3.53;;;15.80;99.90;;;;;;4974110;28;20472;-77
2022/07/01 00:19:27;;;;;;;7.75;3.67;;;15.80;99.90;;;;;;4992268;28;20042;-76
2022/07/01 00:21:53;;;;;;;14.50;4.03;;;15.80;99.90;;;;;;4975099;28;20116;-77
2022/07/01 00:24:19;;;;;;;9.07;3.58;;;15.80;99.90;;;;;;4988090;28;20384;-77
2022/07/01 00:26:45;;;;;;;6.32;3.25;;;15.80;99.90;;;;;;4974454;28;20050;-77
2022/07/01 00:29:10;;;;;;;8.77;3.40;;;15.80;99.90;;;;;;4990633;28;20493;-77
2022/07/01 00:31:36;;;;;;;7.88;3.85;;;15.70;99.90;;;;;;4974514;28;20049;-77
2022/07/01 00:34:02;;;;;;;7.53;3.80;;;15.70;99.90;;;;;;4991685;28;20460;-76
2022/07/01 00:36:28;;;;;;;14.73;3.97;;;15.60;99.90;;;;;;4991216;28;20442;-77
2022/07/01 00:38:54;;;;;;;10.70;3.90;;;15.60;99.90;;;;;;4992320;28;20038;-76
2022/07/01 00:41:20;;;;;;;7.38;3.38;;;15.60;99.90;;;;;;4973940;28;20047;-76
2022/07/01 00:43:46;;;;;;;4.68;3.67;;;15.60;99.90;;;;;;4958610;28;20101;-76
2022/07/01 00:46:12;;;;;;;8.25;4.00;;;15.60;99.90;;;;;;4965461;28;20058;-76
2022/07/01 00:48:38;;;;;;;8.88;4.22;;;15.60;99.90;;;;;;4991304;28;20041;-76
2022/07/01 00:51:04;;;;;;;7.65;3.53;;;15.70;99.90;;;;;;4974469;28;20073;-76
2022/07/01 00:53:31;;;;;;;5.57;3.67;;;15.60;99.90;;;;;;4981127;28;20570;-76
2022/07/01 00:55:57;;;;;;;11.32;4.63;;;15.60;99.90;;;;;;4991883;28;20491;-76
2022/07/01 00:58:28;;;;;;;6.68;4.43;;;15.70;99.90;;;;;;4973630;28;20061;-76
2022/07/01 01:00:56;;;;;;;11.82;4.80;;;15.70;99.90;;;;;;4973239;28;20076;-77
2022/07/01 01:03:22;;;;;;;8.47;4.20;;;15.70;99.90;;;;;;4974172;28;20046;-77
2022/07/01 01:05:49;;;;;;;12.63;4.20;;;15.60;99.90;;;;;;4974072;28;20057;-77
2022/07/01 01:08:15;;;;;;;6.82;3.58;;;15.50;99.90;;;;;;4976742;28;20105;-76
2022/07/01 01:10:42;;;;;;;5.78;3.05;;;15.50;99.90;;;;;;4977402;28;20126;-77
2022/07/01 01:13:08;;;;;;;2.97;2.10;;;15.50;99.90;;;;;;4965020;28;20054;-77
2022/07/01 01:15:34;;;;;;;6.30;2.33;;;15.50;99.90;;;;;;4976058;28;20039;-77
2022/07/01 01:18:02;;;;;;;4.32;2.35;;;15.50;99.90;;;;;;4977975;28;20047;-77
2022/07/01 01:20:38;;;;;;;3.88;2.20;;;15.50;99.90;;;;;;4974061;28;20093;-77
2022/07/01 01:23:04;;;;;;;3.38;1.73;;;15.60;99.90;;;;;;4962313;28;20050;-77
2022/07/01 01:25:31;;;;;;;2.53;1.85;;;15.60;99.90;;;;;;4973455;28;20050;-77
2022/07/01 01:27:57;;;;;;;7.50;2.13;;;15.50;99.90;;;;;;4973510;28;20046;-77
2022/07/01 01:30:23;;;;;;;3.47;1.63;;;15.60;99.90;;;;;;4970909;28;20053;-77
2022/07/01 01:32:49;;;;;;;3.72;1.80;;;15.60;99.90;;;;;;4971204;28;20088;-77
2022/07/01 01:35:16;;;;;;;2.40;2.03;;;15.60;99.90;;;;;;4973190;28;20062;-77
2022/07/01 01:37:42;;;;;;;2.38;2.00;;;15.60;99.90;;;;;;4972993;28;20054;-78
2022/07/01 01:40:08;;;;;;;2.47;2.00;;;15.70;99.90;;;;;;4972897;28;20057;-78
2022/07/01 01:42:35;;;;;;;4.68;2.03;;;15.70;99.90;;;;;;4972182;28;20105;-77
2022/07/01 01:45:01;;;;;;;3.50;1.80;;;15.70;99.90;;;;;;4987949;28;20522;-77
2022/07/01 01:47:27;;;;;;;4.15;1.92;;;15.70;99.90;;;;;;4990705;28;20506;-78
2022/07/01 01:49:53;;;;;;;2.15;1.95;;;15.80;99.90;;;;;;4972635;28;20071;-78
2022/07/01 01:52:19;;;;;;;3.70;2.25;;;15.70;99.90;;;;;;4976864;28;20105;-78
2022/07/01 01:54:44;;;;;;;5.22;2.15;;;15.80;99.90;;;;;;4980583;28;20059;-78
2022/07/01 01:57:10;;;;;;;6.80;2.17;;;15.80;99.90;;;;;;4967783;28;20409;-77
2022/07/01 01:59:36;;;;;;;3.13;2.63;;;15.90;99.90;;;;;;4972920;28;20073;-77
2022/07/01 02:02:01;;;;;;;4.05;1.90;;;15.90;99.90;;;;;;4959247;28;20458;-78
2022/07/01 02:04:27;;;;;;;2.33;2.03;;;15.90;99.90;;;;;;4973240;28;20050;-78
2022/07/01 02:06:53;;;;;;;3.05;2.40;;;15.90;99.90;;;;;;4971446;28;20046;-77
2022/07/01 02:09:19;;;;;;;8.27;2.92;;;15.90;99.90;;;;;;4971377;28;20077;-77
2022/07/01 02:11:44;;;;;;;4.70;2.90;;;16.00;99.90;;;;;;4968798;28;20039;-77
2022/07/01 02:14:10;;;;;;;4.07;2.75;;;16.00;99.90;;;;;;4976472;28;20050;-77
2022/07/01 02:16:36;;;;;;;5.88;2.65;;;15.90;99.90;;;;;;4972009;28;20057;-77
2022/07/01 02:19:01;;;;;;;3.25;2.90;;;15.90;99.90;;;;;;4968161;28;20042;-77
2022/07/01 02:21:28;;;;;;;4.88;2.88;;;15.80;99.90;;;;;;4948791;28;20053;-77
2022/07/01 02:23:54;;;;;;;5.72;2.85;;;15.80;99.90;;;;;;4972667;28;20042;-76
2022/07/01 02:26:19;;;;;;;4.05;2.53;;;15.80;99.90;;;;;;4978072;28;20057;-76
2022/07/01 02:28:45;;;;;;;4.15;2.75;;;15.80;99.90;;;;;;4968706;28;20046;-77
2022/07/01 02:31:11;;;;;;;3.55;2.70;;;15.70;99.90;;;;;;4986890;28;20049;-76
2022/07/01 02:33:36;;;;;;;3.13;2.45;;;15.70;99.90;;;;;;4972359;28;20050;-76
2022/07/01 02:36:02;;;;;;;5.95;3.10;;;15.70;99.90;;;;;;4970985;28;20108;-76
2022/07/01 02:38:28;;;;;;;3.55;2.70;;;15.80;99.90;;;;;;4972699;28;20050;-77
2022/07/01 02:40:53;;;;;;;6.30;3.30;;;15.70;99.90;;;;;;4989367;28;20445;-77
2022/07/01 02:43:19;;;;;;;2.80;2.58;;;15.70;99.90;;;;;;4972187;28;20057;-76
2022/07/01 02:45:45;;;;;;;4.43;2.83;;;15.70;99.90;;;;;;4972592;28;20053;-77
2022/07/01 02:48:10;;;;;;;14.00;3.10;;;15.70;99.90;;;;;;4971849;28;20051;-77
2022/07/01 02:50:36;;;;;;;3.83;2.58;;;15.60;99.90;;;;;;4971665;28;20050;-76
2022/07/01 02:53:03;;;;;;;4.60;2.65;;;15.60;99.90;;;;;;4971149;28;20063;-76
2022/07/01 02:55:31;;;;;;;4.25;3.63;;;15.60;99.90;;;;;;4974132;28;20050;-76
2022/07/01 02:57:57;;;;;;;7.13;3.50;;;15.60;99.90;;;;;;4970382;28;20053;-76
2022/07/01 03:00:23;;;;;;;6.95;3.50;;;15.60;99.90;;;;;;4987008;28;20050;-76
2022/07/01 03:02:49;;;;;;;7.38;3.83;;;15.60;99.90;;;;;;4970788;28;20046;-77
2022/07/01 03:05:15;;;;;;;5.00;3.72;;;15.60;99.90;;;;;;4970612;28;20050;-77
2022/07/01 03:07:41;;;;;;;4.63;3.97;;;15.60;99.90;;;;;;4971056;28;20399;-76
2022/07/01 03:10:08;;;;;;;9.02;4.03;;;15.50;99.90;;;;;;4970163;28;20082;-77
2022/07/01 03:12:38;;;;;;;7.10;3.75;;;15.50;99.90;;;;;;4970686;28;20054;-77
2022/07/01 03:15:08;;;;;;;7.75;4.65;;;15.50;99.90;;;;;;4987504;28;20058;-76
2022/07/01 03:17:35;;;;;;;11.20;5.13;;;15.50;99.90;;;;;;4970579;28;20088;-75
2022/07/01 03:20:02;;;;;;;9.83;5.20;;;15.40;99.90;;;;;;4969979;28;20042;-77
2022/07/01 03:22:31;;;;;;;5.57;4.25;;;15.40;99.90;;;;;;4970623;28;20678;-75
2022/07/01 03:24:57;;;;;;;7.97;6.32;;;15.40;99.90;;;;;;4983599;28;20058;-77
2022/07/01 03:27:24;;;;;;;7.88;5.35;;;15.40;99.90;;;;;;4969462;28;20096;-77
2022/07/01 03:29:50;;;;;;;9.07;6.43;;;15.40;99.90;;;;;;4964431;28;20607;-74
2022/07/01 03:32:16;;;;;;;10.00;7.20;;;15.40;99.90;;;;;;4964868;28;20488;-76
2022/07/01 03:34:44;;;;;;;9.85;7.25;;;15.30;99.90;;;;;;4964612;28;20108;-76
2022/07/01 03:37:12;;;;;;;16.42;8.40;;;15.30;99.90;;;;;;4965713;28;20093;-76
2022/07/01 03:39:39;;;;;;;11.88;8.63;;;15.40;99.90;;;;;;4970438;28;20034;-78
2022/07/01 03:42:06;;;;;;;10.55;7.70;;;15.40;99.90;;;;;;4971166;28;20125;-77
2022/07/01 03:44:33;;;;;;;13.50;9.63;;;15.40;99.90;;;;;;4969174;28;20038;-76
2022/07/01 03:46:59;;;;;;;11.52;9.05;;;15.40;99.90;;;;;;4971117;28;20461;-78
2022/07/01 03:49:25;;;;;;;13.15;9.73;;;15.40;99.90;;;;;;4969572;28;20046;-78
2022/07/01 03:51:51;;;;;;;22.58;13.45;;;15.40;99.90;;;;;;4970723;28;20077;-78
2022/07/01 03:54:30;;;;;;;25.33;15.30;;;15.40;99.90;;;;;;4969296;28;20566;-78
2022/07/01 03:56:57;;;;;;;21.50;16.88;;;15.40;99.90;;;;;;4970579;28;20058;-77
2022/07/01 03:59:24;;;;;;;27.67;18.33;;;15.40;99.90;;;;;;4969335;28;20655;-79
2022/07/01 04:01:49;;;;;;;31.35;20.10;;;15.40;99.90;;;;;;4975118;28;20039;-75
2022/07/01 04:04:15;;;;;;;24.67;18.90;;;15.40;99.90;;;;;;4972736;28;20061;-76
2022/07/01 04:06:42;;;;;;;30.42;21.65;;;15.40;99.90;;;;;;4970669;28;20430;-77
2022/07/01 04:09:08;;;;;;;30.00;20.38;;;15.40;99.90;;;;;;4967240;28;20082;-71
2022/07/01 04:11:33;;;;;;;29.45;21.70;;;15.30;99.90;;;;;;4975214;28;20854;-76
2022/07/01 04:13:59;;;;;;;29.50;20.73;;;15.40;99.90;;;;;;4971811;28;20054;-76
2022/07/01 04:16:25;;;;;;;29.45;23.02;;;15.30;99.90;;;;;;4987074;28;20046;-76
2022/07/01 04:18:52;;;;;;;33.85;21.70;;;15.40;99.90;;;;;;4973746;28;20046;-76
2022/07/01 04:24:02;;;;;;;33.35;22.77;;;15.30;99.90;;;;;;4974170;28;20129;-77
2022/07/01 04:26:27;;;;;;;33.05;22.90;;;15.30;99.90;;;;;;4973144;28;20134;-77
2022/07/01 04:28:54;;;;;;;39.95;25.17;;;15.30;99.90;;;;;;4973480;28;20054;-77
2022/07/01 04:31:21;;;;;;;45.25;27.88;;;15.30;99.90;;;;;;4978200;28;20050;-78
2022/07/01 04:33:50;;;;;;;43.20;27.00;;;15.30;99.90;;;;;;4989369;28;20093;-76
2022/07/01 04:36:16;;;;;;;46.40;27.90;;;15.30;99.90;;;;;;4974590;28;20141;-76
2022/07/01 04:38:42;;;;;;;41.88;25.92;;;15.30;99.90;;;;;;4972438;28;20046;-77
2022/07/01 04:43:54;;;;;;;46.40;28.50;;;15.30;99.90;;;;;;4973013;28;20528;-78
2022/07/01 04:46:20;;;;;;;52.83;32.30;;;15.20;99.90;;;;;;4973586;28;20046;-76
2022/07/01 04:48:46;;;;;;;69.25;36.80;;;15.30;99.90;;;;;;4970519;28;20746;-74
2022/07/01 04:51:12;;;;;;;56.33;35.22;;;15.20;99.90;;;;;;4989580;28;20045;-74
2022/07/01 04:53:37;;;;;;;57.05;36.15;;;15.20;99.90;;;;;;4973452;28;20042;-74
2022/07/01 04:56:03;;;;;;;60.67;37.05;;;15.30;99.90;;;;;;4989741;28;20042;-74
2022/07/01 04:58:29;;;;;;;59.80;36.72;;;15.20;99.90;;;;;;4990397;28;20050;-74
2022/07/01 05:00:55;;;;;;;56.42;35.42;;;15.20;99.90;;;;;;4990597;28;20038;-75
2022/07/01 05:03:21;;;;;;;54.47;34.03;;;15.30;99.90;;;;;;4982804;28;20081;-74
2022/07/01 05:05:46;;;;;;;57.75;35.88;;;15.30;99.90;;;;;;4977982;28;20088;-75
2022/07/01 05:08:12;;;;;;;55.95;37.78;;;15.30;99.90;;;;;;4976940;28;20036;-75
2022/07/01 05:10:37;;;;;;;60.67;38.30;;;15.30;99.90;;;;;;4992371;28;20451;-74
2022/07/01 05:13:04;;;;;;;64.15;38.10;;;15.30;99.90;;;;;;4984145;28;20053;-73
2022/07/01 05:15:29;;;;;;;58.03;37.42;;;15.20;99.90;;;;;;4971785;28;20054;-73
2022/07/01 05:23:24;;;;;;;59.15;37.22;;;15.30;99.90;;;;;;4984979;28;20125;-71
2022/07/01 05:25:49;;;;;;;55.33;38.35;;;15.30;99.90;;;;;;4989795;28;20499;-71
2022/07/01 05:28:15;;;;;;;57.60;39.17;;;15.30;99.90;;;;;;4967355;28;20829;-73
2022/07/01 05:30:41;;;;;;;61.33;38.60;;;15.30;99.90;;;;;;4971694;28;20030;-73
2022/07/01 05:33:06;;;;;;;66.07;38.13;;;15.30;99.90;;;;;;4956149;28;20046;-74
2022/07/01 05:35:32;;;;;;;65.10;37.45;;;15.30;99.90;;;;;;4971756;28;20090;-73
2022/07/01 05:37:58;;;;;;;64.55;36.95;;;15.30;99.90;;;;;;4987648;28;20057;-73
2022/07/01 05:40:25;;;;;;;62.42;40.10;;;15.40;99.90;;;;;;4971214;28;20051;-71
2022/07/01 05:42:51;;;;;;;63.78;37.58;;;15.40;99.90;;;;;;4972017;28;20054;-72
2022/07/01 05:45:18;;;;;;;63.85;40.45;;;15.30;99.90;;;;;;4972164;28;20053;-71
2022/07/01 05:47:44;;;;;;;61.35;38.17;;;15.40;99.90;;;;;;4982535;28;20049;-72
2022/07/01 05:50:10;;;;;;;68.30;42.13;;;15.40;99.90;;;;;;4972617;28;20046;-72
2022/07/01 05:52:36;;;;;;;59.38;37.35;;;15.40;99.90;;;;;;4971784;28;20116;-72
2022/07/01 05:55:01;;;;;;;67.00;39.53;;;15.50;99.90;;;;;;4986676;28;20113;-71
2022/07/01 05:57:27;;;;;;;66.40;40.83;;;15.60;99.90;;;;;;4985674;28;20042;-72
2022/07/01 05:59:54;;;;;;;61.83;39.85;;;15.60;99.90;;;;;;4967320;28;20411;-72
2022/07/01 06:02:20;;;;;;;63.63;38.35;;;15.60;99.90;;;;;;4968219;28;20073;-71
2022/07/01 06:04:45;;;;;;;64.05;38.88;;;15.70;99.90;;;;;;4982558;28;20752;-71
2022/07/01 06:07:11;;;;;;;64.28;40.08;;;15.70;99.90;;;;;;4985435;28;20147;-71
2022/07/01 06:09:37;;;;;;;57.22;38.30;;;15.70;99.90;;;;;;4983867;28;20458;-73
2022/07/01 06:12:04;;;;;;;71.32;45.00;;;15.80;99.90;;;;;;4987556;28;20635;-73
2022/07/01 06:14:30;;;;;;;69.50;43.47;;;15.70;99.90;;;;;;4985499;28;20484;-73
2022/07/01 06:16:56;;;;;;;59.60;39.35;;;15.70;99.90;;;;;;4988374;28;20122;-73
2022/07/01 06:19:22;;;;;;;66.70;44.15;;;15.70;99.90;;;;;;4976750;28;20140;-72
2022/07/01 06:21:48;;;;;;;72.43;42.28;;;15.70;99.90;;;;;;4988394;28;20125;-72
2022/07/01 06:24:13;;;;;;;64.18;42.45;;;15.70;99.90;;;;;;4987921;28;20046;-73
2022/07/01 06:26:39;;;;;;;72.10;46.53;;;15.70;99.90;;;;;;4988784;28;20046;-73
2022/07/01 06:29:05;;;;;;;69.30;43.30;;;15.80;99.90;;;;;;4989141;28;20086;-72
2022/07/01 06:31:33;;;;;;;66.45;44.95;;;15.80;99.90;;;;;;4988606;28;20064;-73
2022/07/01 06:33:59;;;;;;;62.78;40.90;;;15.80;99.90;;;;;;4988575;28;20043;-73
2022/07/01 06:36:25;;;;;;;65.00;41.25;;;15.90;99.90;;;;;;4988648;28;20069;-73
2022/07/01 06:38:51;;;;;;;70.85;44.22;;;15.90;99.90;;;;;;4970861;28;20153;-72
2022/07/01 06:41:28;;;;;;;64.93;42.63;;;16.00;99.90;;;;;;4986304;28;20043;-73
2022/07/01 06:44:02;;;;;;;62.88;43.42;;;16.00;99.90;;;;;;4970873;28;20176;-73
2022/07/01 06:46:29;;;;;;;75.32;43.17;;;16.10;99.90;;;;;;4971714;28;20053;-73
2022/07/01 06:48:55;;;;;;;59.72;40.90;;;16.10;99.90;;;;;;4972896;28;20038;-74
2022/07/01 06:51:22;;;;;;;65.15;42.88;;;16.20;99.90;;;;;;4988655;28;20069;-73
2022/07/01 06:53:49;;;;;;;64.43;43.80;;;16.20;99.90;;;;;;4958890;28;20075;-74
2022/07/01 06:56:15;;;;;;;68.90;44.35;;;16.30;99.90;;;;;;4985547;28;20057;-74
2022/07/01 06:58:41;;;;;;;64.82;44.03;;;16.30;99.90;;;;;;4987500;28;20046;-75
2022/07/01 07:01:07;;;;;;;64.45;42.65;;;16.40;99.90;;;;;;4983368;28;20047;-74
2022/07/01 07:03:33;;;;;;;65.57;43.80;;;16.40;99.90;;;;;;4987986;28;20112;-74
2022/07/01 07:06:02;;;;;;;56.70;41.80;;;16.40;99.90;;;;;;4970619;28;20046;-73
2022/07/01 07:08:29;;;;;;;61.97;41.13;;;16.40;99.90;;;;;;4979900;28;20459;-73
2022/07/01 07:10:55;;;;;;;57.75;41.60;;;16.40;99.90;;;;;;4967479;28;20050;-74
2022/07/01 07:13:20;;;;;;;63.65;43.63;;;16.40;99.90;;;;;;4987958;28;20034;-72
2022/07/01 07:15:46;;;;;;;68.28;46.20;;;16.40;99.90;;;;;;4989186;28;20109;-74
2022/07/01 07:18:12;;;;;;;65.20;45.60;;;16.30;99.90;;;;;;4976577;28;20042;-72
2022/07/01 07:20:37;;;;;;;76.00;43.85;;;16.30;99.90;;;;;;4988331;28;20058;-73
2022/07/01 07:23:04;;;;;;;65.10;43.45;;;16.30;99.90;;;;;;4987741;28;20038;-73
2022/07/01 07:25:29;;;;;;;65.63;46.03;;;16.30;99.90;;;;;;4976527;28;20185;-73
2022/07/01 07:27:55;;;;;;;63.88;41.45;;;16.30;99.90;;;;;;4985459;28;20545;-73
2022/07/01 07:30:21;;;;;;;65.68;46.40;;;16.40;99.90;;;;;;4985534;28;20134;-71
2022/07/01 07:32:47;;;;;;;67.00;43.78;;;16.30;99.90;;;;;;4985926;28;20054;-75
2022/07/01 07:35:13;;;;;;;62.10;43.33;;;16.30;99.90;;;;;;4975795;28;20534;-72
2022/07/01 07:37:40;;;;;;;57.22;40.50;;;16.40;99.90;;;;;;4988565;28;20081;-75
2022/07/01 07:40:09;;;;;;;67.55;45.10;;;16.40;99.90;;;;;;4975537;28;20384;-73
2022/07/01 07:42:36;;;;;;;64.72;43.58;;;16.50;99.90;;;;;;4987631;28;20049;-73
2022/07/01 07:45:02;;;;;;;62.97;42.50;;;16.50;99.90;;;;;;4986675;28;20048;-76
2022/07/01 07:47:28;;;;;;;61.97;42.38;;;16.50;99.90;;;;;;4987362;28;20561;-70
2022/07/01 07:49:54;;;;;;;63.70;40.63;;;16.60;99.90;;;;;;4969294;28;20055;-73
2022/07/01 07:52:19;;;;;;;58.10;40.53;;;16.60;99.90;;;;;;4985403;28;20057;-73
2022/07/01 07:54:45;;;;;;;68.13;40.83;;;16.70;99.90;;;;;;4974084;28;20411;-72
2022/07/01 07:57:11;;;;;;;58.58;41.03;;;16.80;99.90;;;;;;4996507;28;20105;-75
2022/07/01 07:59:37;;;;;;;57.30;40.17;;;16.80;99.90;;;;;;4962163;28;20054;-73
2022/07/01 08:02:03;;;;;;;51.67;37.45;;;16.90;99.90;;;;;;4964682;28;20065;-75
2022/07/01 08:04:28;;;;;;;60.53;38.05;;;17.00;99.90;;;;;;4973858;28;20054;-75
2022/07/01 08:06:54;;;;;;;58.42;40.47;;;17.00;99.90;;;;;;4971857;28;20175;-75
2022/07/01 08:09:20;;;;;;;55.38;38.40;;;17.10;99.90;;;;;;4963739;28;20495;-75
2022/07/01 08:11:46;;;;;;;58.70;38.10;;;17.10;99.90;;;;;;4947638;28;20046;-74
2022/07/01 08:14:12;;;;;;;56.67;39.08;;;17.10;99.90;;;;;;4982812;28;20042;-75
2022/07/01 08:16:38;;;;;;;58.78;34.65;;;17.20;99.90;;;;;;4971075;28;20388;-75
2022/07/01 08:19:03;;;;;;;52.35;35.78;;;17.20;99.90;;;;;;4971930;28;20494;-75
2022/07/01 08:21:29;;;;;;;54.92;37.15;;;17.30;99.90;;;;;;4973784;28;20174;-76
2022/07/01 08:23:55;;;;;;;52.00;36.88;;;17.40;99.90;;;;;;4984263;28;20514;-75
2022/07/01 08:26:21;;;;;;;55.88;36.75;;;17.50;99.90;;;;;;4990069;28;20138;-75
2022/07/01 08:28:47;;;;;;;52.30;35.63;;;17.50;99.90;;;;;;4973285;28;20089;-75
2022/07/01 08:31:13;;;;;;;61.60;35.28;;;17.50;99.90;;;;;;4973041;28;20089;-72
2022/07/01 08:33:39;;;;;;;52.45;35.53;;;17.50;99.90;;;;;;4971370;28;20050;-72
2022/07/01 08:36:06;;;;;;;46.72;34.05;;;17.50;99.90;;;;;;4960376;28;20423;-72
2022/07/01 08:38:32;;;;;;;53.60;33.77;;;17.60;99.90;;;;;;4981184;28;20046;-70
2022/07/01 08:40:59;;;;;;;44.05;32.45;;;17.70;99.90;;;;;;4990362;28;20038;-73
2022/07/01 08:43:24;;;;;;;52.60;35.05;;;17.80;99.90;;;;;;4973095;28;20082;-72
2022/07/01 08:45:54;;;;;;;57.25;33.08;;;18.00;99.90;;;;;;4973781;28;20130;-74
2022/07/01 08:48:20;;;;;;;40.95;30.92;;;18.10;99.90;;;;;;4973214;28;20081;-74
2022/07/01 08:50:46;;;;;;;41.38;28.75;;;18.40;99.90;;;;;;4971531;28;20416;-74
2022/07/01 08:53:13;;;;;;;41.97;29.17;;;18.60;99.90;;;;;;4973101;28;20051;-73
2022/07/01 08:58:25;;;;;;;38.90;27.30;;;19.00;99.90;;;;;;4970092;28;20062;-74
2022/07/01 09:00:51;;;;;;;46.22;26.50;;;19.50;99.90;;;;;;4973600;28;20545;-73
2022/07/01 09:03:21;;;;;;;33.65;24.00;;;19.90;99.90;;;;;;4971720;28;20050;-72
2022/07/01 09:05:51;;;;;;;31.80;24.33;;;20.00;99.90;;;;;;4976569;28;20050;-74
2022/07/01 09:08:18;;;;;;;33.75;21.83;;;19.90;99.90;;;;;;4986138;28;20096;-74
2022/07/01 09:10:45;;;;;;;39.25;22.63;;;19.90;99.90;;;;;;4986442;28;20053;-73
2022/07/01 09:13:13;;;;;;;31.25;22.17;;;19.80;99.90;;;;;;4976381;28;20067;-76
2022/07/01 09:15:40;;;;;;;29.80;20.58;;;19.80;99.90;;;;;;4971912;28;20653;-75
2022/07/01 09:18:09;;;;;;;28.92;20.33;;;19.70;99.90;;;;;;4978445;28;20525;-76
2022/07/01 09:20:38;;;;;;;28.17;20.80;;;19.80;99.90;;;;;;4972686;28;20046;-80
2022/07/01 09:23:06;;;;;;;23.35;18.25;;;19.90;99.90;;;;;;4969207;28;20062;-80
2022/07/01 09:25:43;;;;;;;29.85;21.60;;;20.10;99.90;;;;;;4967943;28;20050;-76
2022/07/01 09:28:24;;;;;;;26.48;17.48;;;20.20;99.90;;;;;;4972815;28;20149;-78
2022/07/01 09:30:51;;;;;;;25.08;18.70;;;20.60;99.90;;;;;;4970817;28;20097;-76
2022/07/01 09:33:18;;;;;;;;;;;20.70;99.90;;;;;;4972711;28;20073;-78
2022/07/01 09:35:46;;;;;;;27.40;18.13;;;20.50;99.90;;;;;;4965919;28;19922;-77
2022/07/01 09:38:14;;;;;;;31.23;18.95;;;20.40;99.90;;;;;;4952208;28;20096;-78
2022/07/01 09:40:54;;;;;;;28.17;18.10;;;20.40;99.90;;;;;;4967829;28;20058;-76
2022/07/01 09:43:26;;;;;;;28.67;17.95;;;20.40;99.90;;;;;;4966710;28;20047;-75
2022/07/01 09:46:03;;;;;;;32.85;15.57;;;20.10;99.90;;;;;;4967348;28;20051;-82
2022/07/01 09:48:32;;;;;;;;;;;20.00;99.90;;;;;;4969608;28;20071;-77
2022/07/01 09:50:58;;;;;;;23.73;17.90;;;19.80;99.90;;;;;;4970605;28;20387;-77
2022/07/01 09:53:24;;;;;;;27.83;17.30;;;19.70;99.90;;;;;;4970340;28;20050;-77
2022/07/01 09:55:54;;;;;;;23.42;15.73;;;19.70;99.90;;;;;;4981100;28;20080;-75
2022/07/01 09:58:20;;;;;;;24.55;16.50;;;19.80;99.90;;;;;;4958978;28;20175;-76
2022/07/01 10:00:47;;;;;;;32.10;17.45;;;19.80;99.90;;;;;;4965247;28;20050;-77
2022/07/01 10:03:13;;;;;;;19.88;14.43;;;19.70;99.90;;;;;;4969628;28;20046;-76
2022/07/01 10:05:45;;;;;;;22.90;13.82;;;19.70;99.90;;;;;;4967861;28;20717;-76
2022/07/01 10:08:23;;;;;;;25.42;14.15;;;19.60;99.90;;;;;;4964453;28;20051;-75
2022/07/01 10:11:23;;;;;;;21.92;13.70;;;19.60;99.90;;;;;;4967898;28;20134;-76
2022/07/01 10:13:49;;;;;;;23.08;14.05;;;19.60;99.90;;;;;;4977879;28;20046;-76
2022/07/01 10:16:17;;;;;;;15.43;12.30;;;19.60;99.90;;;;;;4961893;28;20062;-76
2022/07/01 10:18:43;;;;;;;20.27;12.45;;;19.70;99.90;;;;;;4968677;28;20054;-75
2022/07/01 10:21:11;;;;;;;13.93;10.73;;;19.90;99.90;;;;;;4968468;28;20038;-77
2022/07/01 10:23:42;;;;;;;29.67;11.38;;;20.00;99.90;;;;;;4965475;28;20091;-77
2022/07/01 10:26:08;;;;;;;13.63;11.18;;;20.20;99.90;;;;;;4976006;28;20043;-77
2022/07/01 10:28:43;;;;;;;20.20;12.07;;;20.40;99.90;;;;;;4983668;28;20043;-78
2022/07/01 10:31:36;;;;;;;20.33;12.25;;;20.60;99.90;;;;;;4967798;28;20512;-76
2022/07/01 10:34:03;;;;;;;18.17;11.70;;;20.50;99.90;;;;;;4961605;28;20078;-77
2022/07/01 10:36:34;;;;;;;21.60;12.55;;;20.50;99.90;;;;;;4966585;28;20503;-75
2022/07/01 10:39:13;;;;;;;27.05;12.15;;;20.50;99.90;;;;;;4968167;28;20050;-76
2022/07/01 10:41:59;;;;;;;21.45;11.32;;;20.50;99.90;;;;;;4966703;28;20504;-76
2022/07/01 10:44:27;;;;;;;20.15;11.65;;;20.90;99.90;;;;;;4968636;28;20069;-75
2022/07/01 10:46:59;;;;;;;16.10;11.15;;;21.10;99.90;;;;;;4966746;28;20051;-76
2022/07/01 10:49:36;;;;;;;18.45;12.30;;;21.40;99.90;;;;;;4967650;28;20411;-76
2022/07/01 10:52:07;;;;;;;20.38;10.82;;;21.40;99.90;;;;;;4971347;28;20045;-77
2022/07/01 10:54:35;;;;;;;22.52;12.25;;;21.40;99.90;;;;;;4966983;28;20049;-75
2022/07/01 10:57:24;;;;;;;13.40;10.27;;;21.30;99.90;;;;;;4967369;28;20129;-75
2022/07/01 10:59:56;;;;;;;12.70;11.18;;;21.20;99.90;;;;;;4967918;28;20109;-76
2022/07/01 11:02:32;;;;;;;18.00;10.32;;;21.10;99.90;;;;;;4967395;28;20051;-71
2022/07/01 11:05:18;;;;;;;19.98;11.40;;;21.10;99.90;;;;;;4968248;28;20057;-72
2022/07/01 11:07:45;;;;;;;12.63;9.40;;;21.20;99.90;;;;;;4969016;28;20121;-71
2022/07/01 11:10:15;;;;;;;11.52;9.50;;;21.40;99.90;;;;;;4968075;28;20039;-75
2022/07/01 11:12:43;;;;;;;12.63;10.23;;;21.70;99.90;;;;;;4962799;28;20052;-75
2022/07/01 11:15:10;;;;;;;12.07;9.60;;;22.00;99.90;;;;;;4965741;28;20090;-72
2022/07/01 11:17:45;;;;;;;12.23;9.67;;;22.20;99.90;;;;;;4956190;28;20051;-70
2022/07/01 11:20:11;;;;;;;13.32;10.43;;;22.10;99.90;;;;;;4978520;28;20519;-74
2022/07/01 11:22:37;;;;;;;17.63;10.32;;;22.20;99.90;;;;;;4967205;28;20051;-76
2022/07/01 11:25:06;;;;;;;9.48;8.55;;;22.30;99.90;;;;;;4968275;28;20116;-73
2022/07/01 11:27:32;;;;;;;20.08;10.60;;;22.50;99.90;;;;;;4961450;28;20054;-75
2022/07/01 11:30:09;;;;;;;18.02;10.18;;;22.40;99.90;;;;;;4966753;28;20074;-75
2022/07/01 11:32:46;;;;;;;13.23;9.45;;;22.40;99.90;;;;;;4967323;28;20105;-74
2022/07/01 11:41:05;;;;;;;12.57;8.80;;;22.70;99.90;;;;;;4947561;28;20500;-75
2022/07/01 11:43:34;;;;;;;22.02;9.23;;;22.80;99.90;;;;;;4947069;28;20449;-74
2022/07/01 11:46:01;;;;;;;15.65;8.35;;;22.80;99.90;;;;;;4949520;28;20043;-74
2022/07/01 11:48:29;;;;;;;;;;;22.90;99.90;;;;;;4967594;28;20059;-76
2022/07/01 11:50:54;;;;;;;9.43;8.00;;;22.90;95.70;;;;;;4968883;28;19918;-74
2022/07/01 11:53:20;;;;;;;10.82;6.95;;;22.90;95.50;;;;;;4950588;28;20511;-75
2022/07/01 11:55:47;;;;;;;8.48;7.28;;;22.80;99.90;;;;;;4951540;28;20656;-74
2022/07/01 11:58:13;;;;;;;8.35;7.28;;;22.80;99.90;;;;;;4950174;28;20059;-75
2022/07/01 12:00:39;;;;;;;6.65;5.88;;;22.80;99.90;;;;;;4968367;28;20523;-74
2022/07/01 12:03:06;;;;;;;10.23;7.22;;;22.80;99.90;;;;;;4951867;28;20117;-71
2022/07/01 12:05:34;;;;;;;7.55;6.75;;;22.90;98.50;;;;;;4961374;28;20058;-72
2022/07/01 12:08:00;;;;;;;7.90;7.10;;;22.90;99.90;;;;;;4946631;28;20126;-72
2022/07/01 12:10:27;;;;;;;9.13;7.25;;;23.00;99.90;;;;;;4945099;28;20130;-73
2022/07/01 12:12:52;;;;;;;14.23;6.35;;;23.10;98.40;;;;;;4949560;28;20050;-74
2022/07/01 12:15:20;;;;;;;8.98;6.85;;;23.20;94.30;;;;;;4965503;28;20178;-73
2022/07/01 12:17:46;;;;;;;8.95;6.38;;;23.10;93.90;;;;;;4950548;28;20043;-74
2022/07/01 12:20:12;;;;;;;8.30;6.97;;;22.90;97.30;;;;;;4956749;28;20059;-73
2022/07/01 12:22:38;;;;;;;7.65;4.88;;;22.80;94.60;;;;;;4948195;28;20393;-73
2022/07/01 12:25:11;;;;;;;6.38;5.70;;;22.60;96.00;;;;;;4946389;28;20050;-74
2022/07/01 12:27:38;;;;;;;8.00;6.30;;;22.30;97.00;;;;;;4960631;28;20489;-75
2022/07/01 12:30:10;;;;;;;10.70;5.22;;;22.20;94.70;;;;;;4943869;28;20051;-74
2022/07/01 12:32:38;;;;;;;5.72;5.15;;;22.00;99.90;;;;;;4949682;28;20126;-73
2022/07/01 12:38:16;;;;;;;6.43;5.18;;;22.30;98.40;;;;;;4929711;29;20508;-74
2022/07/01 12:40:42;;;;;;;13.68;5.93;;;22.30;99.90;;;;;;4950014;28;20158;-72
2022/07/01 12:43:22;;;;;;;9.68;4.75;;;22.20;99.90;;;;;;4956200;28;20504;-74
2022/07/01 12:45:48;;;;;;;9.80;5.65;;;22.30;99.20;;;;;;4985463;28;20054;-74
2022/07/01 12:48:14;;;;;;;7.68;4.97;;;22.30;99.90;;;;;;4969753;28;20057;-73
2022/07/01 12:50:40;;;;;;;12.13;5.97;;;22.50;99.90;;;;;;4969586;28;20039;-75
2022/07/01 12:53:11;;;;;;;6.07;5.45;;;22.70;96.40;;;;;;4953474;28;20059;-73
2022/07/01 12:55:39;;;;;;;11.48;5.65;;;22.80;96.00;;;;;;4964635;28;20050;-71
2022/07/01 12:58:12;;;;;;;9.25;4.88;;;22.70;96.10;;;;;;4968943;28;20408;-72